createdAt,value
2023-05-08T00:03:39.662Z,15.30
2023-05-08T00:08:43.626Z,15.30
2023-05-08T00:13:45.432Z,15.30
2023-05-08T00:18:47.267Z,15.30
2023-05-08T00:24:03.806Z,15.70
2023-05-08T00:29:06.712Z,15.20
2023-05-08T00:34:08.933Z,15.20
2023-05-08T00:39:10.662Z,15.20
2023-05-08T00:44:12.392Z,15.20
2023-05-08T00:49:15.000Z,15.20
2023-05-08T00:54:17.288Z,15.10
2023-05-08T00:59:22.812Z,15.10
2023-05-08T01:04:26.660Z,15.10
2023-05-08T01:09:28.832Z,15.10
2023-05-08T01:14:42.866Z,15.10
2023-05-08T01:20:41.612Z,15.00
2023-05-08T01:26:01.322Z,15.10
2023-05-08T01:31:11.661Z,13.90
2023-05-08T01:36:31.373Z,15.20
2023-05-08T01:41:36.847Z,15.20
2023-05-08T01:46:38.785Z,15.30
2023-05-08T01:51:53.676Z,15.20
2023-05-08T01:57:01.067Z,16.00
2023-05-08T02:02:19.424Z,15.20
2023-05-08T02:07:23.260Z,15.20
2023-05-08T02:12:33.637Z,15.20
2023-05-08T02:17:46.811Z,15.20
2023-05-08T02:22:58.239Z,15.10
2023-05-08T02:28:00.013Z,13.80
2023-05-08T02:33:08.672Z,15.20
2023-05-08T02:38:26.325Z,15.20
2023-05-08T02:43:28.485Z,15.10
2023-05-08T02:48:50.424Z,15.10
2023-05-08T02:53:58.290Z,15.10
2023-05-08T02:59:20.636Z,15.10
2023-05-08T03:04:33.848Z,15.10
2023-05-08T03:09:43.073Z,15.10
2023-05-08T03:15:12.104Z,15.10
2023-05-08T03:20:18.505Z,15.10
2023-05-08T03:25:21.220Z,15.10
2023-05-08T03:30:26.900Z,15.10
2023-05-08T03:35:37.441Z,15.10
2023-05-08T03:40:39.985Z,17.00
2023-05-08T03:45:56.659Z,15.00
2023-05-08T03:51:01.348Z,15.00
2023-05-08T03:56:03.383Z,15.00
2023-05-08T04:01:25.520Z,14.90
2023-05-08T04:06:48.720Z,14.90
2023-05-08T04:12:11.755Z,14.90
2023-05-08T04:17:22.728Z,14.90
2023-05-08T04:22:27.233Z,15.00
2023-05-08T04:27:30.171Z,15.00
2023-05-08T04:32:48.059Z,15.00
2023-05-08T04:37:50.235Z,15.00
2023-05-08T04:43:06.804Z,15.00
2023-05-08T04:48:08.704Z,15.00
2023-05-08T04:53:25.334Z,15.00
2023-05-08T04:58:28.939Z,15.10
2023-05-08T05:03:31.450Z,15.10
2023-05-08T05:08:33.235Z,15.10
2023-05-08T05:13:50.078Z,15.20
2023-05-08T05:19:07.065Z,15.20
2023-05-08T05:24:09.057Z,15.20
2023-05-08T05:29:11.296Z,15.30
2023-05-08T05:34:13.358Z,15.20
2023-05-08T05:39:15.159Z,15.20
2023-05-08T05:44:16.939Z,16.20
2023-05-08T05:49:18.746Z,15.20
2023-05-08T05:54:20.522Z,15.40
2023-05-08T05:59:22.551Z,15.40
2023-05-08T06:04:27.690Z,14.80
2023-05-08T06:09:30.093Z,15.50
2023-05-08T06:14:35.624Z,15.50
2023-05-08T06:19:54.291Z,15.60
2023-05-08T06:24:57.281Z,15.70
2023-05-08T06:29:59.142Z,15.60
2023-05-08T06:35:01.000Z,15.50
2023-05-08T06:40:12.191Z,15.60
2023-05-08T06:45:15.291Z,15.50
2023-05-08T06:50:20.874Z,15.50
2023-05-08T06:55:22.779Z,15.50
2023-05-08T07:00:25.258Z,15.60
2023-05-08T07:05:27.095Z,15.70
2023-05-08T07:10:28.909Z,15.70
2023-05-08T07:15:33.557Z,15.80
2023-05-08T07:20:35.455Z,15.90
2023-05-08T07:25:37.252Z,16.00
2023-05-08T07:30:39.140Z,13.60
2023-05-08T07:35:56.900Z,16.00
2023-05-08T07:40:59.910Z,16.00
2023-05-08T07:46:02.018Z,16.40
2023-05-08T07:51:03.929Z,16.30
2023-05-08T07:56:08.758Z,16.30
2023-05-08T08:01:10.519Z,16.60
2023-05-08T08:06:15.336Z,16.70
2023-05-08T08:11:17.360Z,16.60
2023-05-08T08:16:19.248Z,16.80
2023-05-08T08:21:35.977Z,17.00
2023-05-08T08:26:37.761Z,17.20
2023-05-08T08:31:39.675Z,17.40
2023-05-08T08:36:44.446Z,17.70
2023-05-08T08:41:46.330Z,17.80
2023-05-08T08:46:52.715Z,17.70
2023-05-08T08:52:19.087Z,17.50
2023-05-08T08:57:21.658Z,17.40
2023-05-08T09:02:25.003Z,17.30
2023-05-08T09:07:28.025Z,17.20
2023-05-08T09:12:29.848Z,17.30
2023-05-08T09:17:31.744Z,17.40
2023-05-08T09:22:54.456Z,17.30
2023-05-08T09:28:33.550Z,17.50
2023-05-08T09:33:44.599Z,17.50
2023-05-08T09:38:46.309Z,17.60
2023-05-08T09:44:01.685Z,17.80
2023-05-08T09:49:04.621Z,17.80
2023-05-08T09:54:18.405Z,18.00
2023-05-08T09:59:26.614Z,19.40
2023-05-08T10:04:33.351Z,18.00
2023-05-08T10:09:49.913Z,18.20
2023-05-08T10:14:52.537Z,18.40
2023-05-08T10:20:00.464Z,18.60
2023-05-08T10:25:03.462Z,18.30
2023-05-08T10:30:06.821Z,18.30
2023-05-08T10:35:12.649Z,19.40
2023-05-08T10:40:19.217Z,18.50
2023-05-08T10:45:21.052Z,18.40
2023-05-08T10:50:39.524Z,18.40
2023-05-08T10:55:45.136Z,18.40
2023-05-08T11:00:52.744Z,18.60
2023-05-08T11:05:56.873Z,18.40
2023-05-08T11:11:02.129Z,18.20
2023-05-08T11:16:08.490Z,18.40
2023-05-08T11:21:20.648Z,18.40
2023-05-08T11:26:37.889Z,18.20
2023-05-08T11:31:53.159Z,18.10
2023-05-08T11:37:08.631Z,18.00
2023-05-08T11:42:25.699Z,18.00
2023-05-08T11:47:37.699Z,18.10
2023-05-08T11:52:41.588Z,18.30
2023-05-08T11:57:43.442Z,18.50
2023-05-08T12:03:00.140Z,18.70
2023-05-08T12:08:04.650Z,18.50
2023-05-08T12:13:26.616Z,18.20
2023-05-08T12:18:30.560Z,16.90
2023-05-08T12:23:37.989Z,18.30
2023-05-08T12:28:40.903Z,18.00
2023-05-08T12:33:58.148Z,18.10
2023-05-08T12:39:19.182Z,17.80
2023-05-08T12:44:24.420Z,18.00
2023-05-08T12:49:30.246Z,18.70
2023-05-08T12:54:40.121Z,19.20
2023-05-08T12:59:50.577Z,19.90
2023-05-08T13:04:56.182Z,21.00
2023-05-08T13:10:02.318Z,20.70
2023-05-08T13:15:05.084Z,20.90
2023-05-08T13:20:11.551Z,22.10
2023-05-08T13:25:14.776Z,21.60
2023-05-08T13:30:17.218Z,21.40
2023-05-08T13:35:28.518Z,22.20
2023-05-08T13:40:30.585Z,22.60
2023-05-08T13:45:47.658Z,22.60
2023-05-08T13:50:49.586Z,21.30
2023-05-08T13:55:51.795Z,21.30
2023-05-08T14:00:54.449Z,21.40
2023-05-08T14:05:56.402Z,22.20
2023-05-08T14:17:20.644Z,22.60
2023-05-08T14:22:22.769Z,23.10
2023-05-08T14:27:24.576Z,22.80
2023-05-08T14:32:26.868Z,22.00
2023-05-08T14:37:29.208Z,21.60
2023-05-08T14:42:31.123Z,21.20
2023-05-08T14:47:33.809Z,20.90
2023-05-08T14:52:35.567Z,20.70
2023-05-08T14:57:37.552Z,20.70
2023-05-08T15:02:40.003Z,20.50
2023-05-08T15:07:42.400Z,20.70
2023-05-08T15:12:44.269Z,20.70
2023-05-08T15:17:46.102Z,20.80
2023-05-08T15:22:47.989Z,20.60
2023-05-08T15:27:52.599Z,20.30
2023-05-08T15:32:54.585Z,20.30
2023-05-08T15:37:56.425Z,20.80
2023-05-08T15:42:58.212Z,20.80
2023-05-08T15:48:00.011Z,20.80
2023-05-08T15:53:01.883Z,20.80
2023-05-08T15:58:03.670Z,20.70
2023-05-08T16:03:05.571Z,20.70
2023-05-08T16:08:08.378Z,20.60
2023-05-08T16:13:10.323Z,20.30
2023-05-08T16:18:12.256Z,20.00
2023-05-08T16:23:14.964Z,19.90
2023-05-08T16:28:16.708Z,19.90
2023-05-08T16:33:18.460Z,19.80
2023-05-08T16:38:20.262Z,19.60
2023-05-08T16:43:22.036Z,19.50
2023-05-08T16:48:24.299Z,19.10
2023-05-08T16:53:27.491Z,19.20
2023-05-08T16:58:29.250Z,19.10
2023-05-08T17:03:31.127Z,18.90
2023-05-08T17:08:33.095Z,18.90
2023-05-08T17:13:34.933Z,18.70
2023-05-08T17:18:36.693Z,18.70
2023-05-08T17:23:38.449Z,18.60
2023-05-08T17:28:40.392Z,18.50
2023-05-08T17:33:42.486Z,18.30
2023-05-08T17:38:46.013Z,18.20
2023-05-08T17:43:47.950Z,18.00
2023-05-08T17:48:49.695Z,18.10
2023-05-08T17:58:55.689Z,17.80
2023-05-08T18:03:57.528Z,17.70
2023-05-08T18:08:59.283Z,17.70
2023-05-08T18:14:01.040Z,17.60
2023-05-08T18:19:02.848Z,17.60
2023-05-08T18:24:05.106Z,17.40
2023-05-08T18:29:07.315Z,17.40
2023-05-08T18:34:09.189Z,17.30
2023-05-08T18:39:11.116Z,17.30
2023-05-08T18:44:12.903Z,17.20
2023-05-08T18:49:14.653Z,17.10
2023-05-08T18:54:16.668Z,17.00
2023-05-08T18:59:18.389Z,16.90
2023-05-08T19:04:20.334Z,17.00
2023-05-08T19:09:23.079Z,16.80
2023-05-08T19:14:25.952Z,16.90
2023-05-08T19:19:27.784Z,16.90
2023-05-08T19:24:30.903Z,16.70
2023-05-08T19:29:34.198Z,16.60
2023-05-08T19:34:39.388Z,16.60
2023-05-08T19:39:41.139Z,16.50
2023-05-08T19:44:44.099Z,16.60
2023-05-08T19:49:45.872Z,16.60
2023-05-08T19:54:47.600Z,16.50
2023-05-08T19:59:49.379Z,16.50
2023-05-08T20:05:18.834Z,16.50
2023-05-08T20:10:13.110Z,16.40
2023-05-08T20:15:15.190Z,16.40
2023-05-08T20:20:17.394Z,16.40
2023-05-08T20:25:19.349Z,16.40
2023-05-08T20:30:23.521Z,16.30
2023-05-08T20:35:25.834Z,16.20
2023-05-08T20:40:27.752Z,16.20
2023-05-08T20:45:29.519Z,16.10
2023-05-08T20:50:31.501Z,16.10
2023-05-08T20:55:33.424Z,16.00
2023-05-08T21:00:35.704Z,16.00
2023-05-08T21:05:37.440Z,16.00
2023-05-08T21:10:39.146Z,16.00
2023-05-08T21:15:40.930Z,15.90
2023-05-08T21:20:49.672Z,15.80
2023-05-08T21:25:51.479Z,15.60
2023-05-08T21:30:53.233Z,15.60
2023-05-08T21:35:54.972Z,15.50
2023-05-08T21:40:57.042Z,15.30
2023-05-08T21:45:58.824Z,15.40
2023-05-08T21:51:01.311Z,15.30
2023-05-08T21:56:03.285Z,15.20
2023-05-08T22:01:05.759Z,15.00
2023-05-08T22:06:07.756Z,14.90
2023-05-08T22:11:09.575Z,14.90
2023-05-08T22:16:11.586Z,14.80
2023-05-08T22:21:13.396Z,14.80
2023-05-08T22:26:15.210Z,14.80
2023-05-08T22:31:17.048Z,14.80
2023-05-08T22:36:18.899Z,14.80
2023-05-08T22:41:22.167Z,14.80
2023-05-08T22:46:24.433Z,14.90
2023-05-08T22:51:27.867Z,14.90
2023-05-08T22:56:29.661Z,14.90
2023-05-08T23:01:31.436Z,14.90
2023-05-08T23:06:33.553Z,14.80
2023-05-08T23:11:35.503Z,14.80
2023-05-08T23:16:37.354Z,14.80
2023-05-08T23:21:39.079Z,14.70
2023-05-08T23:26:42.134Z,14.80
2023-05-08T23:31:44.310Z,14.70
2023-05-08T23:36:46.495Z,14.70
2023-05-08T23:41:48.298Z,14.70
2023-05-08T23:46:50.148Z,14.60
2023-05-08T23:51:52.057Z,14.70
2023-05-08T23:56:53.819Z,14.70
